sensor_id;sensor_type;location;lat;lon;timestamp;temperature;humidity
12688;DHT22;6408;59.388;17.798;2023-04-15T00:01:39;2.90;99.90
12688;DHT22;6408;59.388;17.798;2023-04-15T00:04:08;2.90;99.90
12688;DHT22;6408;59.388;17.798;2023-04-15T00:06:36;2.90;99.90
12688;DHT22;6408;59.388;17.798;2023-04-15T00:09:04;2.90;99.90
12688;DHT22;6408;59.388;17.798;2023-04-15T00:11:31;2.90;99.90
12688;DHT22;6408;59.388;17.798;2023-04-15T00:13:58;2.90;99.90
12688;DHT22;6408;59.388;17.798;2023-04-15T00:16:26;2.90;99.90
12688;DHT22;6408;59.388;17.798;2023-04-15T00:18:53;2.90;99.90
12688;DHT22;6408;59.388;17.798;2023-04-15T00:21:22;2.90;99.90
12688;DHT22;6408;59.388;17.798;2023-04-15T00:23:50;3.00;99.90
12688;DHT22;6408;59.388;17.798;2023-04-15T00:26:18;2.90;99.90
12688;DHT22;6408;59.388;17.798;2023-04-15T00:28:45;2.90;99.90
12688;DHT22;6408;59.388;17.798;2023-04-15T00:31:13;2.90;99.90
12688;DHT22;6408;59.388;17.798;2023-04-15T00:33:40;2.80;99.90
12688;DHT22;6408;59.388;17.798;2023-04-15T00:36:08;2.90;99.90
12688;DHT22;6408;59.388;17.798;2023-04-15T00:38:37;2.90;99.90
12688;DHT22;6408;59.388;17.798;2023-04-15T00:41:04;2.90;99.90
12688;DHT22;6408;59.388;17.798;2023-04-15T00:43:32;2.90;99.90
12688;DHT22;6408;59.388;17.798;2023-04-15T00:46:00;3.00;99.90
12688;DHT22;6408;59.388;17.798;2023-04-15T00:48:29;3.00;99.90
12688;DHT22;6408;59.388;17.798;2023-04-15T00:50:56;3.00;99.90
12688;DHT22;6408;59.388;17.798;2023-04-15T00:53:24;3.00;99.90
12688;DHT22;6408;59.388;17.798;2023-04-15T00:55:53;3.00;99.90
12688;DHT22;6408;59.388;17.798;2023-04-15T00:58:20;2.90;99.90
12688;DHT22;6408;59.388;17.798;2023-04-15T01:00:48;2.90;99.90
12688;DHT22;6408;59.388;17.798;2023-04-15T01:03:18;2.90;99.90
12688;DHT22;6408;59.388;17.798;2023-04-15T01:05:46;3.00;99.90
12688;DHT22;6408;59.388;17.798;2023-04-15T01:08:13;2.90;99.90
12688;DHT22;6408;59.388;17.798;2023-04-15T01:10:41;3.00;99.90
12688;DHT22;6408;59.388;17.798;2023-04-15T01:13:10;3.00;99.90
12688;DHT22;6408;59.388;17.798;2023-04-15T01:15:37;3.00;99.90
12688;DHT22;6408;59.388;17.798;2023-04-15T01:18:04;3.00;99.90
12688;DHT22;6408;59.388;17.798;2023-04-15T01:20:33;3.10;99.90
12688;DHT22;6408;59.388;17.798;2023-04-15T01:23:01;3.00;99.90
12688;DHT22;6408;59.388;17.798;2023-04-15T01:25:32;3.00;99.90
12688;DHT22;6408;59.388;17.798;2023-04-15T01:28:00;3.10;99.90
12688;DHT22;6408;59.388;17.798;2023-04-15T01:30:28;3.10;99.90
12688;DHT22;6408;59.388;17.798;2023-04-15T01:32:55;3.10;99.90
12688;DHT22;6408;59.388;17.798;2023-04-15T01:35:22;3.10;99.90
12688;DHT22;6408;59.388;17.798;2023-04-15T01:37:50;3.10;99.90
12688;DHT22;6408;59.388;17.798;2023-04-15T01:40:17;3.10;99.90
12688;DHT22;6408;59.388;17.798;2023-04-15T01:42:46;3.10;99.90
12688;DHT22;6408;59.388;17.798;2023-04-15T01:45:13;3.10;99.90
12688;DHT22;6408;59.388;17.798;2023-04-15T01:47:41;3.10;99.90
12688;DHT22;6408;59.388;17.798;2023-04-15T01:50:09;3.10;99.90
12688;DHT22;6408;59.388;17.798;2023-04-15T01:52:37;3.10;99.90
12688;DHT22;6408;59.388;17.798;2023-04-15T01:55:06;3.10;99.90
12688;DHT22;6408;59.388;17.798;2023-04-15T01:57:34;3.10;99.90
12688;DHT22;6408;59.388;17.798;2023-04-15T02:00:04;3.20;99.90
12688;DHT22;6408;59.388;17.798;2023-04-15T02:02:32;3.20;99.90
12688;DHT22;6408;59.388;17.798;2023-04-15T02:05:00;3.20;99.90
12688;DHT22;6408;59.388;17.798;2023-04-15T02:07:29;3.20;99.90
12688;DHT22;6408;59.388;17.798;2023-04-15T02:09:57;3.20;99.90
12688;DHT22;6408;59.388;17.798;2023-04-15T02:12:24;3.20;99.90
12688;DHT22;6408;59.388;17.798;2023-04-15T02:14:52;3.20;99.90
12688;DHT22;6408;59.388;17.798;2023-04-15T02:17:21;3.30;99.90
12688;DHT22;6408;59.388;17.798;2023-04-15T02:19:48;3.30;99.90
12688;DHT22;6408;59.388;17.798;2023-04-15T02:22:15;3.30;99.90
12688;DHT22;6408;59.388;17.798;2023-04-15T02:24:44;3.30;99.90
12688;DHT22;6408;59.388;17.798;2023-04-15T02:27:15;3.30;99.90
12688;DHT22;6408;59.388;17.798;2023-04-15T02:29:43;3.30;99.90
12688;DHT22;6408;59.388;17.798;2023-04-15T02:32:10;3.40;99.90
12688;DHT22;6408;59.388;17.798;2023-04-15T02:34:40;3.40;99.90
12688;DHT22;6408;59.388;17.798;2023-04-15T02:37:07;3.40;99.90
12688;DHT22;6408;59.388;17.798;2023-04-15T02:39:36;3.50;99.90
12688;DHT22;6408;59.388;17.798;2023-04-15T02:42:03;3.40;99.90
12688;DHT22;6408;59.388;17.798;2023-04-15T02:44:32;3.40;99.90
12688;DHT22;6408;59.388;17.798;2023-04-15T02:47:01;3.40;99.90
12688;DHT22;6408;59.388;17.798;2023-04-15T02:49:29;3.40;99.90
12688;DHT22;6408;59.388;17.798;2023-04-15T02:51:58;3.40;99.90
12688;DHT22;6408;59.388;17.798;2023-04-15T02:54:26;3.50;99.90
12688;DHT22;6408;59.388;17.798;2023-04-15T02:56:54;3.50;99.90
12688;DHT22;6408;59.388;17.798;2023-04-15T02:59:22;3.50;99.90
12688;DHT22;6408;59.388;17.798;2023-04-15T03:01:49;3.50;99.90
12688;DHT22;6408;59.388;17.798;2023-04-15T03:04:16;3.50;99.90
12688;DHT22;6408;59.388;17.798;2023-04-15T03:06:43;3.50;99.90
12688;DHT22;6408;59.388;17.798;2023-04-15T03:09:12;3.50;99.90
12688;DHT22;6408;59.388;17.798;2023-04-15T03:11:39;3.60;99.90
12688;DHT22;6408;59.388;17.798;2023-04-15T03:14:06;3.60;99.90
12688;DHT22;6408;59.388;17.798;2023-04-15T03:16:34;3.60;99.90
12688;DHT22;6408;59.388;17.798;2023-04-15T03:19:02;3.60;99.90
12688;DHT22;6408;59.388;17.798;2023-04-15T03:21:29;3.60;99.90
12688;DHT22;6408;59.388;17.798;2023-04-15T03:23:57;3.60;99.90
12688;DHT22;6408;59.388;17.798;2023-04-15T03:26:27;3.60;99.90
12688;DHT22;6408;59.388;17.798;2023-04-15T03:28:55;3.60;99.90
12688;DHT22;6408;59.388;17.798;2023-04-15T03:31:23;3.60;99.90
12688;DHT22;6408;59.388;17.798;2023-04-15T03:33:51;3.60;99.90
12688;DHT22;6408;59.388;17.798;2023-04-15T03:36:18;3.70;99.90
12688;DHT22;6408;59.388;17.798;2023-04-15T03:38:46;3.70;99.90
12688;DHT22;6408;59.388;17.798;2023-04-15T03:41:14;3.70;99.90
12688;DHT22;6408;59.388;17.798;2023-04-15T03:43:42;3.70;99.90
12688;DHT22;6408;59.388;17.798;2023-04-15T03:46:10;3.70;99.90
12688;DHT22;6408;59.388;17.798;2023-04-15T03:48:37;3.80;99.90
12688;DHT22;6408;59.388;17.798;2023-04-15T03:51:05;3.80;99.90
12688;DHT22;6408;59.388;17.798;2023-04-15T03:53:32;3.80;99.90
12688;DHT22;6408;59.388;17.798;2023-04-15T03:56:00;3.80;99.90
12688;DHT22;6408;59.388;17.798;2023-04-15T03:58:27;3.70;99.90
12688;DHT22;6408;59.388;17.798;2023-04-15T04:00:56;3.80;99.90
12688;DHT22;6408;59.388;17.798;2023-04-15T04:03:24;3.80;99.90
12688;DHT22;6408;59.388;17.798;2023-04-15T04:05:51;3.90;99.90
12688;DHT22;6408;59.388;17.798;2023-04-15T04:08:19;3.80;99.90
12688;DHT22;6408;59.388;17.798;2023-04-15T04:10:46;3.90;99.90
12688;DHT22;6408;59.388;17.798;2023-04-15T04:13:13;4.00;99.90
12688;DHT22;6408;59.388;17.798;2023-04-15T04:15:41;4.00;99.90
12688;DHT22;6408;59.388;17.798;2023-04-15T04:18:09;4.50;99.90
12688;DHT22;6408;59.388;17.798;2023-04-15T04:20:37;4.90;99.90
12688;DHT22;6408;59.388;17.798;2023-04-15T04:23:04;5.30;99.90
12688;DHT22;6408;59.388;17.798;2023-04-15T04:25:32;5.70;99.90
12688;DHT22;6408;59.388;17.798;2023-04-15T04:27:59;6.00;99.90
12688;DHT22;6408;59.388;17.798;2023-04-15T04:30:26;6.40;99.90
12688;DHT22;6408;59.388;17.798;2023-04-15T04:32:54;6.90;99.90
12688;DHT22;6408;59.388;17.798;2023-04-15T04:35:23;7.30;99.90
12688;DHT22;6408;59.388;17.798;2023-04-15T04:37:51;7.60;99.90
12688;DHT22;6408;59.388;17.798;2023-04-15T04:40:18;8.00;99.90
12688;DHT22;6408;59.388;17.798;2023-04-15T04:42:46;8.30;99.90
12688;DHT22;6408;59.388;17.798;2023-04-15T04:45:13;8.60;99.90
12688;DHT22;6408;59.388;17.798;2023-04-15T04:47:41;8.70;99.90
12688;DHT22;6408;59.388;17.798;2023-04-15T04:50:08;8.50;99.90
12688;DHT22;6408;59.388;17.798;2023-04-15T04:52:38;8.40;99.90
12688;DHT22;6408;59.388;17.798;2023-04-15T04:55:06;8.80;99.90
12688;DHT22;6408;59.388;17.798;2023-04-15T04:57:34;9.10;99.90
12688;DHT22;6408;59.388;17.798;2023-04-15T05:00:02;9.10;99.90
12688;DHT22;6408;59.388;17.798;2023-04-15T05:02:30;9.50;99.90
12688;DHT22;6408;59.388;17.798;2023-04-15T05:04:57;9.60;99.90
12688;DHT22;6408;59.388;17.798;2023-04-15T05:07:24;9.80;99.90
12688;DHT22;6408;59.388;17.798;2023-04-15T05:09:53;9.80;99.90
12688;DHT22;6408;59.388;17.798;2023-04-15T05:12:20;10.20;99.90
12688;DHT22;6408;59.388;17.798;2023-04-15T05:14:48;9.80;99.90
12688;DHT22;6408;59.388;17.798;2023-04-15T05:17:15;10.20;99.90
12688;DHT22;6408;59.388;17.798;2023-04-15T05:19:42;11.10;99.90
12688;DHT22;6408;59.388;17.798;2023-04-15T05:22:10;11.30;99.90
12688;DHT22;6408;59.388;17.798;2023-04-15T05:24:37;11.70;99.90
12688;DHT22;6408;59.388;17.798;2023-04-15T05:27:06;12.40;99.90
12688;DHT22;6408;59.388;17.798;2023-04-15T05:29:36;12.70;99.90
12688;DHT22;6408;59.388;17.798;2023-04-15T05:32:04;13.30;99.90
12688;DHT22;6408;59.388;17.798;2023-04-15T05:34:31;13.20;99.90
12688;DHT22;6408;59.388;17.798;2023-04-15T05:36:58;12.70;99.90
12688;DHT22;6408;59.388;17.798;2023-04-15T05:39:26;12.50;99.90
12688;DHT22;6408;59.388;17.798;2023-04-15T05:41:54;13.50;99.90
12688;DHT22;6408;59.388;17.798;2023-04-15T05:44:24;14.70;99.90
12688;DHT22;6408;59.388;17.798;2023-04-15T05:46:51;13.90;99.90
12688;DHT22;6408;59.388;17.798;2023-04-15T05:49:19;14.90;99.90
12688;DHT22;6408;59.388;17.798;2023-04-15T05:51:47;16.40;99.90
12688;DHT22;6408;59.388;17.798;2023-04-15T05:54:14;16.60;99.90
12688;DHT22;6408;59.388;17.798;2023-04-15T05:56:41;15.90;99.90
12688;DHT22;6408;59.388;17.798;2023-04-15T05:59:09;15.60;99.90
12688;DHT22;6408;59.388;17.798;2023-04-15T06:01:38;15.70;99.90
12688;DHT22;6408;59.388;17.798;2023-04-15T06:04:05;16.20;99.90
12688;DHT22;6408;59.388;17.798;2023-04-15T06:06:33;17.10;99.90
12688;DHT22;6408;59.388;17.798;2023-04-15T06:09:00;16.90;99.90
12688;DHT22;6408;59.388;17.798;2023-04-15T06:11:27;18.30;99.90
12688;DHT22;6408;59.388;17.798;2023-04-15T06:13:56;19.50;99.90
12688;DHT22;6408;59.388;17.798;2023-04-15T06:16:24;18.50;99.90
12688;DHT22;6408;59.388;17.798;2023-04-15T06:18:53;18.80;99.90
12688;DHT22;6408;59.388;17.798;2023-04-15T06:21:20;17.90;99.90
12688;DHT22;6408;59.388;17.798;2023-04-15T06:23:48;18.00;99.90
12688;DHT22;6408;59.388;17.798;2023-04-15T06:26:15;18.50;99.90
12688;DHT22;6408;59.388;17.798;2023-04-15T06:28:42;19.80;99.90
12688;DHT22;6408;59.388;17.798;2023-04-15T06:31:10;19.30;99.90
12688;DHT22;6408;59.388;17.798;2023-04-15T06:33:37;19.80;99.90
12688;DHT22;6408;59.388;17.798;2023-04-15T06:36:07;19.90;99.90
12688;DHT22;6408;59.388;17.798;2023-04-15T06:38:34;20.60;99.90
12688;DHT22;6408;59.388;17.798;2023-04-15T06:41:02;21.30;99.90
12688;DHT22;6408;59.388;17.798;2023-04-15T06:43:30;21.40;99.90
12688;DHT22;6408;59.388;17.798;2023-04-15T06:45:57;20.60;99.90
12688;DHT22;6408;59.388;17.798;2023-04-15T06:48:24;21.50;99.90
12688;DHT22;6408;59.388;17.798;2023-04-15T06:50:52;21.40;99.90
12688;DHT22;6408;59.388;17.798;2023-04-15T06:53:22;20.70;99.40
12688;DHT22;6408;59.388;17.798;2023-04-15T06:55:49;20.60;99.90
12688;DHT22;6408;59.388;17.798;2023-04-15T06:58:16;19.90;99.50
12688;DHT22;6408;59.388;17.798;2023-04-15T07:00:43;19.60;99.90
12688;DHT22;6408;59.388;17.798;2023-04-15T07:03:11;19.80;99.70
12688;DHT22;6408;59.388;17.798;2023-04-15T07:05:40;19.00;99.10
12688;DHT22;6408;59.388;17.798;2023-04-15T07:08:07;19.40;99.90
12688;DHT22;6408;59.388;17.798;2023-04-15T07:10:36;20.20;98.70
12688;DHT22;6408;59.388;17.798;2023-04-15T07:13:03;20.80;98.50
12688;DHT22;6408;59.388;17.798;2023-04-15T07:15:33;20.50;97.40
12688;DHT22;6408;59.388;17.798;2023-04-15T07:18:01;21.10;97.80
12688;DHT22;6408;59.388;17.798;2023-04-15T07:20:28;19.80;98.40
12688;DHT22;6408;59.388;17.798;2023-04-15T07:22:56;19.80;98.60
12688;DHT22;6408;59.388;17.798;2023-04-15T07:25:23;19.00;97.90
12688;DHT22;6408;59.388;17.798;2023-04-15T07:27:53;19.60;98.70
12688;DHT22;6408;59.388;17.798;2023-04-15T07:30:21;20.10;98.00
12688;DHT22;6408;59.388;17.798;2023-04-15T07:32:49;21.80;97.50
12688;DHT22;6408;59.388;17.798;2023-04-15T07:35:16;21.50;96.90
12688;DHT22;6408;59.388;17.798;2023-04-15T07:37:46;21.10;96.50
12688;DHT22;6408;59.388;17.798;2023-04-15T07:40:14;22.10;96.50
12688;DHT22;6408;59.388;17.798;2023-04-15T07:42:41;22.70;96.80
12688;DHT22;6408;59.388;17.798;2023-04-15T07:45:11;23.40;95.60
12688;DHT22;6408;59.388;17.798;2023-04-15T07:47:38;23.00;94.80
12688;DHT22;6408;59.388;17.798;2023-04-15T07:50:09;23.40;94.50
12688;DHT22;6408;59.388;17.798;2023-04-15T07:52:37;22.10;94.70
12688;DHT22;6408;59.388;17.798;2023-04-15T07:55:05;21.10;95.90
12688;DHT22;6408;59.388;17.798;2023-04-15T07:57:33;18.30;96.70
12688;DHT22;6408;59.388;17.798;2023-04-15T08:00:00;18.10;96.90
12688;DHT22;6408;59.388;17.798;2023-04-15T08:02:30;16.50;98.10
12688;DHT22;6408;59.388;17.798;2023-04-15T08:04:57;17.00;98.80
12688;DHT22;6408;59.388;17.798;2023-04-15T08:07:24;15.80;99.40
12688;DHT22;6408;59.388;17.798;2023-04-15T08:09:51;14.60;99.90
12688;DHT22;6408;59.388;17.798;2023-04-15T08:12:19;14.00;99.90
12688;DHT22;6408;59.388;17.798;2023-04-15T08:14:47;13.50;99.90
12688;DHT22;6408;59.388;17.798;2023-04-15T08:17:14;13.20;99.90
12688;DHT22;6408;59.388;17.798;2023-04-15T08:19:43;12.80;99.90
12688;DHT22;6408;59.388;17.798;2023-04-15T08:22:10;12.40;99.90
12688;DHT22;6408;59.388;17.798;2023-04-15T08:24:38;12.00;99.90
12688;DHT22;6408;59.388;17.798;2023-04-15T08:27:05;11.70;99.90
12688;DHT22;6408;59.388;17.798;2023-04-15T08:29:33;11.40;99.90
12688;DHT22;6408;59.388;17.798;2023-04-15T08:32:01;11.30;99.90
12688;DHT22;6408;59.388;17.798;2023-04-15T08:34:29;11.30;99.90
12688;DHT22;6408;59.388;17.798;2023-04-15T08:36:58;11.10;99.90
12688;DHT22;6408;59.388;17.798;2023-04-15T08:39:26;10.50;99.90
12688;DHT22;6408;59.388;17.798;2023-04-15T08:41:58;10.50;99.90
12688;DHT22;6408;59.388;17.798;2023-04-15T08:44:28;10.60;99.90
12688;DHT22;6408;59.388;17.798;2023-04-15T08:46:56;10.60;99.90
12688;DHT22;6408;59.388;17.798;2023-04-15T08:49:28;10.40;99.90
12688;DHT22;6408;59.388;17.798;2023-04-15T08:51:58;10.30;99.90
12688;DHT22;6408;59.388;17.798;2023-04-15T08:54:26;10.60;99.90
12688;DHT22;6408;59.388;17.798;2023-04-15T08:56:54;10.80;99.90
12688;DHT22;6408;59.388;17.798;2023-04-15T08:59:23;11.10;99.90
12688;DHT22;6408;59.388;17.798;2023-04-15T09:01:50;11.20;99.90
12688;DHT22;6408;59.388;17.798;2023-04-15T09:04:18;11.40;99.90
12688;DHT22;6408;59.388;17.798;2023-04-15T09:06:46;11.40;99.90
12688;DHT22;6408;59.388;17.798;2023-04-15T09:09:15;11.30;99.90
12688;DHT22;6408;59.388;17.798;2023-04-15T09:11:42;11.30;99.90
12688;DHT22;6408;59.388;17.798;2023-04-15T09:14:10;11.20;99.90
12688;DHT22;6408;59.388;17.798;2023-04-15T09:16:57;11.20;99.90
12688;DHT22;6408;59.388;17.798;2023-04-15T09:19:25;11.30;99.90
12688;DHT22;6408;59.388;17.798;2023-04-15T09:21:53;11.30;99.90
12688;DHT22;6408;59.388;17.798;2023-04-15T09:24:23;11.30;99.90
12688;DHT22;6408;59.388;17.798;2023-04-15T09:26:51;11.30;99.90
12688;DHT22;6408;59.388;17.798;2023-04-15T09:29:25;11.20;99.90
12688;DHT22;6408;59.388;17.798;2023-04-15T09:31:52;11.20;99.90
12688;DHT22;6408;59.388;17.798;2023-04-15T09:34:20;11.10;99.90
12688;DHT22;6408;59.388;17.798;2023-04-15T09:36:56;11.30;99.90
12688;DHT22;6408;59.388;17.798;2023-04-15T09:39:25;11.50;99.90
12688;DHT22;6408;59.388;17.798;2023-04-15T09:42:05;11.50;99.90
12688;DHT22;6408;59.388;17.798;2023-04-15T09:44:33;11.70;99.90
12688;DHT22;6408;59.388;17.798;2023-04-15T09:47:00;11.80;99.90
12688;DHT22;6408;59.388;17.798;2023-04-15T09:49:28;11.80;99.90
12688;DHT22;6408;59.388;17.798;2023-04-15T09:51:59;11.90;99.90
12688;DHT22;6408;59.388;17.798;2023-04-15T09:54:36;11.80;99.90
12688;DHT22;6408;59.388;17.798;2023-04-15T09:57:08;11.60;99.90
12688;DHT22;6408;59.388;17.798;2023-04-15T09:59:37;11.90;99.90
12688;DHT22;6408;59.388;17.798;2023-04-15T10:02:05;11.80;99.90
12688;DHT22;6408;59.388;17.798;2023-04-15T10:04:35;11.80;99.90
12688;DHT22;6408;59.388;17.798;2023-04-15T10:07:05;12.00;99.90
12688;DHT22;6408;59.388;17.798;2023-04-15T10:09:37;12.10;99.90
12688;DHT22;6408;59.388;17.798;2023-04-15T10:12:05;12.30;99.90
12688;DHT22;6408;59.388;17.798;2023-04-15T10:14:34;12.60;99.90
12688;DHT22;6408;59.388;17.798;2023-04-15T10:17:04;12.70;99.90
12688;DHT22;6408;59.388;17.798;2023-04-15T10:19:33;12.40;99.90
12688;DHT22;6408;59.388;17.798;2023-04-15T10:22:02;12.50;99.90
12688;DHT22;6408;59.388;17.798;2023-04-15T10:24:30;12.50;99.90
12688;DHT22;6408;59.388;17.798;2023-04-15T10:27:00;12.30;99.90
12688;DHT22;6408;59.388;17.798;2023-04-15T10:29:30;11.90;99.90
12688;DHT22;6408;59.388;17.798;2023-04-15T10:31:58;11.80;99.90
12688;DHT22;6408;59.388;17.798;2023-04-15T10:34:27;12.00;99.90
12688;DHT22;6408;59.388;17.798;2023-04-15T10:36:56;11.90;99.90
12688;DHT22;6408;59.388;17.798;2023-04-15T10:39:38;11.90;99.90
12688;DHT22;6408;59.388;17.798;2023-04-15T10:42:09;11.90;99.90
12688;DHT22;6408;59.388;17.798;2023-04-15T10:44:37;11.80;99.90
12688;DHT22;6408;59.388;17.798;2023-04-15T10:47:09;12.00;99.90
12688;DHT22;6408;59.388;17.798;2023-04-15T10:49:46;12.00;99.90
12688;DHT22;6408;59.388;17.798;2023-04-15T10:52:14;11.90;99.90
12688;DHT22;6408;59.388;17.798;2023-04-15T10:54:43;11.80;99.90
12688;DHT22;6408;59.388;17.798;2023-04-15T10:57:20;12.00;99.90
12688;DHT22;6408;59.388;17.798;2023-04-15T11:00:10;11.90;99.90
12688;DHT22;6408;59.388;17.798;2023-04-15T11:02:42;12.00;99.90
12688;DHT22;6408;59.388;17.798;2023-04-15T11:05:11;11.80;99.90
12688;DHT22;6408;59.388;17.798;2023-04-15T11:10:52;11.60;99.90
12688;DHT22;6408;59.388;17.798;2023-04-15T11:13:25;11.80;99.90
12688;DHT22;6408;59.388;17.798;2023-04-15T11:16:00;11.70;99.90
12688;DHT22;6408;59.388;17.798;2023-04-15T11:18:30;11.70;99.90
12688;DHT22;6408;59.388;17.798;2023-04-15T11:20:59;11.80;99.90
12688;DHT22;6408;59.388;17.798;2023-04-15T11:23:32;11.80;99.90
12688;DHT22;6408;59.388;17.798;2023-04-15T11:26:01;11.60;99.90
12688;DHT22;6408;59.388;17.798;2023-04-15T11:28:32;11.70;99.90
12688;DHT22;6408;59.388;17.798;2023-04-15T11:31:06;11.70;99.90
12688;DHT22;6408;59.388;17.798;2023-04-15T11:33:35;11.80;99.90
12688;DHT22;6408;59.388;17.798;2023-04-15T11:36:03;11.80;99.90
12688;DHT22;6408;59.388;17.798;2023-04-15T11:38:30;11.80;99.90
12688;DHT22;6408;59.388;17.798;2023-04-15T11:40:58;11.90;99.90
12688;DHT22;6408;59.388;17.798;2023-04-15T11:43:25;11.90;99.90
12688;DHT22;6408;59.388;17.798;2023-04-15T11:45:56;11.90;99.90
12688;DHT22;6408;59.388;17.798;2023-04-15T11:48:25;12.10;99.90
12688;DHT22;6408;59.388;17.798;2023-04-15T11:50:54;12.10;99.80
12688;DHT22;6408;59.388;17.798;2023-04-15T11:53:23;11.90;99.70
12688;DHT22;6408;59.388;17.798;2023-04-15T11:55:51;11.80;99.30
12688;DHT22;6408;59.388;17.798;2023-04-15T11:58:21;11.60;99.90
12688;DHT22;6408;59.388;17.798;2023-04-15T12:00:49;11.60;99.90
12688;DHT22;6408;59.388;17.798;2023-04-15T12:03:24;11.80;99.90
12688;DHT22;6408;59.388;17.798;2023-04-15T12:06:09;11.80;99.90
12688;DHT22;6408;59.388;17.798;2023-04-15T12:08:48;11.70;99.90
12688;DHT22;6408;59.388;17.798;2023-04-15T12:11:17;11.40;99.90
12688;DHT22;6408;59.388;17.798;2023-04-15T12:13:46;11.60;99.90
12688;DHT22;6408;59.388;17.798;2023-04-15T12:16:16;11.60;99.90
12688;DHT22;6408;59.388;17.798;2023-04-15T12:18:46;11.40;99.90
12688;DHT22;6408;59.388;17.798;2023-04-15T12:21:14;11.10;99.90
12688;DHT22;6408;59.388;17.798;2023-04-15T12:23:47;10.90;99.90
12688;DHT22;6408;59.388;17.798;2023-04-15T12:26:16;10.90;99.90
12688;DHT22;6408;59.388;17.798;2023-04-15T12:28:44;10.70;99.90
12688;DHT22;6408;59.388;17.798;2023-04-15T12:31:11;10.90;99.90
12688;DHT22;6408;59.388;17.798;2023-04-15T12:33:40;11.10;99.90
12688;DHT22;6408;59.388;17.798;2023-04-15T12:36:09;11.30;99.90
12688;DHT22;6408;59.388;17.798;2023-04-15T12:38:37;11.40;99.90
12688;DHT22;6408;59.388;17.798;2023-04-15T12:41:04;11.20;99.90
12688;DHT22;6408;59.388;17.798;2023-04-15T12:43:32;11.10;99.90
12688;DHT22;6408;59.388;17.798;2023-04-15T12:45:59;10.70;99.90
12688;DHT22;6408;59.388;17.798;2023-04-15T12:48:27;10.70;99.90
12688;DHT22;6408;59.388;17.798;2023-04-15T12:50:55;10.70;99.90
12688;DHT22;6408;59.388;17.798;2023-04-15T12:53:24;11.00;99.90
12688;DHT22;6408;59.388;17.798;2023-04-15T12:55:52;11.20;99.90
12688;DHT22;6408;59.388;17.798;2023-04-15T12:58:20;10.80;99.90
12688;DHT22;6408;59.388;17.798;2023-04-15T13:00:47;10.70;99.90
12688;DHT22;6408;59.388;17.798;2023-04-15T13:03:15;10.70;99.90
12688;DHT22;6408;59.388;17.798;2023-04-15T13:05:43;10.70;99.90
12688;DHT22;6408;59.388;17.798;2023-04-15T13:08:11;10.60;99.90
12688;DHT22;6408;59.388;17.798;2023-04-15T13:10:40;10.80;99.90
12688;DHT22;6408;59.388;17.798;2023-04-15T13:13:08;11.00;99.90
12688;DHT22;6408;59.388;17.798;2023-04-15T13:15:36;11.20;99.90
12688;DHT22;6408;59.388;17.798;2023-04-15T13:18:05;11.20;99.90
12688;DHT22;6408;59.388;17.798;2023-04-15T13:20:33;10.80;99.90
12688;DHT22;6408;59.388;17.798;2023-04-15T13:23:00;10.80;99.90
12688;DHT22;6408;59.388;17.798;2023-04-15T13:25:28;10.50;99.90
12688;DHT22;6408;59.388;17.798;2023-04-15T13:27:57;10.50;99.90
12688;DHT22;6408;59.388;17.798;2023-04-15T13:30:25;10.50;99.90
12688;DHT22;6408;59.388;17.798;2023-04-15T13:32:53;10.50;99.90
12688;DHT22;6408;59.388;17.798;2023-04-15T13:35:21;10.60;99.90
12688;DHT22;6408;59.388;17.798;2023-04-15T13:37:48;10.50;99.90
12688;DHT22;6408;59.388;17.798;2023-04-15T13:40:16;10.40;99.90
12688;DHT22;6408;59.388;17.798;2023-04-15T13:42:43;10.50;99.90
12688;DHT22;6408;59.388;17.798;2023-04-15T13:45:13;10.80;99.90
12688;DHT22;6408;59.388;17.798;2023-04-15T13:47:41;10.80;99.90
12688;DHT22;6408;59.388;17.798;2023-04-15T13:50:09;10.70;99.90
12688;DHT22;6408;59.388;17.798;2023-04-15T13:52:37;10.70;99.90
12688;DHT22;6408;59.388;17.798;2023-04-15T13:55:05;10.70;99.90
12688;DHT22;6408;59.388;17.798;2023-04-15T13:57:33;10.70;99.90
12688;DHT22;6408;59.388;17.798;2023-04-15T14:00:01;10.60;99.90
12688;DHT22;6408;59.388;17.798;2023-04-15T14:02:31;10.30;99.90
12688;DHT22;6408;59.388;17.798;2023-04-15T14:04:58;10.30;99.90
12688;DHT22;6408;59.388;17.798;2023-04-15T14:07:26;10.40;99.90
12688;DHT22;6408;59.388;17.798;2023-04-15T14:09:55;10.60;99.90
12688;DHT22;6408;59.388;17.798;2023-04-15T14:12:23;10.50;99.90
12688;DHT22;6408;59.388;17.798;2023-04-15T14:14:50;10.40;99.90
12688;DHT22;6408;59.388;17.798;2023-04-15T14:17:18;10.60;99.90
12688;DHT22;6408;59.388;17.798;2023-04-15T14:19:47;10.60;99.90
12688;DHT22;6408;59.388;17.798;2023-04-15T14:22:15;10.50;99.90
12688;DHT22;6408;59.388;17.798;2023-04-15T14:24:43;10.60;99.90
12688;DHT22;6408;59.388;17.798;2023-04-15T14:27:13;10.30;99.90
12688;DHT22;6408;59.388;17.798;2023-04-15T14:29:41;10.30;99.90
12688;DHT22;6408;59.388;17.798;2023-04-15T14:32:08;10.40;99.90
12688;DHT22;6408;59.388;17.798;2023-04-15T14:34:36;10.30;99.90
12688;DHT22;6408;59.388;17.798;2023-04-15T14:37:05;10.30;99.90
12688;DHT22;6408;59.388;17.798;2023-04-15T14:39:33;10.40;99.90
12688;DHT22;6408;59.388;17.798;2023-04-15T14:42:00;10.40;99.90
12688;DHT22;6408;59.388;17.798;2023-04-15T14:44:28;10.50;99.90
12688;DHT22;6408;59.388;17.798;2023-04-15T14:46:55;10.20;99.90
12688;DHT22;6408;59.388;17.798;2023-04-15T14:49:23;10.10;99.90
12688;DHT22;6408;59.388;17.798;2023-04-15T14:51:51;9.90;99.90
12688;DHT22;6408;59.388;17.798;2023-04-15T14:54:20;9.90;99.90
12688;DHT22;6408;59.388;17.798;2023-04-15T14:56:47;9.90;99.90
12688;DHT22;6408;59.388;17.798;2023-04-15T14:59:15;9.80;99.90
12688;DHT22;6408;59.388;17.798;2023-04-15T15:01:43;9.80;99.90
12688;DHT22;6408;59.388;17.798;2023-04-15T15:04:11;9.80;99.90
12688;DHT22;6408;59.388;17.798;2023-04-15T15:06:39;9.80;99.90
12688;DHT22;6408;59.388;17.798;2023-04-15T15:09:07;9.90;99.90
12688;DHT22;6408;59.388;17.798;2023-04-15T15:11:36;10.10;99.90
12688;DHT22;6408;59.388;17.798;2023-04-15T15:14:04;9.80;99.90
12688;DHT22;6408;59.388;17.798;2023-04-15T15:16:31;9.40;99.90
12688;DHT22;6408;59.388;17.798;2023-04-15T15:18:59;9.40;99.90
12688;DHT22;6408;59.388;17.798;2023-04-15T15:21:26;9.40;99.90
12688;DHT22;6408;59.388;17.798;2023-04-15T15:23:54;9.50;99.90
12688;DHT22;6408;59.388;17.798;2023-04-15T15:26:22;9.50;99.90
12688;DHT22;6408;59.388;17.798;2023-04-15T15:28:51;9.30;99.90
12688;DHT22;6408;59.388;17.798;2023-04-15T15:31:18;9.30;99.90
12688;DHT22;6408;59.388;17.798;2023-04-15T15:33:46;9.40;99.90
12688;DHT22;6408;59.388;17.798;2023-04-15T15:36:13;9.20;99.90
12688;DHT22;6408;59.388;17.798;2023-04-15T15:38:42;9.20;99.90
12688;DHT22;6408;59.388;17.798;2023-04-15T15:41:09;9.10;99.90
12688;DHT22;6408;59.388;17.798;2023-04-15T15:43:37;9.10;99.90
12688;DHT22;6408;59.388;17.798;2023-04-15T15:46:06;8.90;99.90
12688;DHT22;6408;59.388;17.798;2023-04-15T15:48:34;9.00;99.90